sensor_id;sensor_type;location;lat;lon;timestamp;temperature;humidity
6954;DHT22;3516;47.980;8.808;2022-12-07T04:52:41;18.80;99.90
6954;DHT22;3516;47.980;8.808;2022-12-07T04:55:08;18.80;99.90
6954;DHT22;3516;47.980;8.808;2022-12-07T04:57:35;18.80;99.90
6954;DHT22;3516;47.980;8.808;2022-12-07T05:00:02;18.80;99.90
6954;DHT22;3516;47.980;8.808;2022-12-07T05:02:29;18.80;99.90
6954;DHT22;3516;47.980;8.808;2022-12-07T05:04:56;18.80;99.90
6954;DHT22;3516;47.980;8.808;2022-12-07T05:07:22;18.80;99.90
6954;DHT22;3516;47.980;8.808;2022-12-07T05:09:51;18.80;99.90
6954;DHT22;3516;47.980;8.808;2022-12-07T05:12:18;18.70;99.90
6954;DHT22;3516;47.980;8.808;2022-12-07T05:14:45;18.70;99.90
6954;DHT22;3516;47.980;8.808;2022-12-07T05:17:11;18.70;99.90
6954;DHT22;3516;47.980;8.808;2022-12-07T05:19:38;18.70;99.90
6954;DHT22;3516;47.980;8.808;2022-12-07T05:22:05;18.80;99.90
6954;DHT22;3516;47.980;8.808;2022-12-07T05:24:31;18.90;99.90
6954;DHT22;3516;47.980;8.808;2022-12-07T05:27:00;18.90;99.90
6954;DHT22;3516;47.980;8.808;2022-12-07T05:29:26;18.90;99.90
6954;DHT22;3516;47.980;8.808;2022-12-07T05:31:53;19.00;99.90
6954;DHT22;3516;47.980;8.808;2022-12-07T05:34:20;19.00;99.90
6954;DHT22;3516;47.980;8.808;2022-12-07T05:36:46;19.00;99.90
6954;DHT22;3516;47.980;8.808;2022-12-07T05:39:13;19.00;99.90
6954;DHT22;3516;47.980;8.808;2022-12-07T05:41:40;19.00;99.90
6954;DHT22;3516;47.980;8.808;2022-12-07T05:44:26;19.00;99.90
6954;DHT22;3516;47.980;8.808;2022-12-07T05:46:52;18.90;99.90
6954;DHT22;3516;47.980;8.808;2022-12-07T05:49:19;18.90;99.90
6954;DHT22;3516;47.980;8.808;2022-12-07T05:51:46;18.90;99.90
6954;DHT22;3516;47.980;8.808;2022-12-07T05:54:13;18.90;99.90
6954;DHT22;3516;47.980;8.808;2022-12-07T05:56:40;18.80;99.90
6954;DHT22;3516;47.980;8.808;2022-12-07T05:59:08;18.90;99.90
6954;DHT22;3516;47.980;8.808;2022-12-07T06:01:50;18.80;99.90
6954;DHT22;3516;47.980;8.808;2022-12-07T06:04:17;18.90;99.90
6954;DHT22;3516;47.980;8.808;2022-12-07T06:06:43;18.80;99.90
6954;DHT22;3516;47.980;8.808;2022-12-07T06:09:10;18.80;99.90
6954;DHT22;3516;47.980;8.808;2022-12-07T06:11:38;18.80;99.90
6954;DHT22;3516;47.980;8.808;2022-12-07T06:14:23;18.80;99.90
6954;DHT22;3516;47.980;8.808;2022-12-07T06:16:51;18.90;99.90
6954;DHT22;3516;47.980;8.808;2022-12-07T06:19:17;18.80;99.90
6954;DHT22;3516;47.980;8.808;2022-12-07T06:21:44;18.80;99.90
6954;DHT22;3516;47.980;8.808;2022-12-07T06:24:12;18.70;99.90
6954;DHT22;3516;47.980;8.808;2022-12-07T06:26:39;18.70;99.90
6954;DHT22;3516;47.980;8.808;2022-12-07T06:29:08;18.70;99.90
6954;DHT22;3516;47.980;8.808;2022-12-07T06:31:36;18.80;99.90
6954;DHT22;3516;47.980;8.808;2022-12-07T06:34:06;18.90;99.90
6954;DHT22;3516;47.980;8.808;2022-12-07T06:36:33;18.80;99.90
6954;DHT22;3516;47.980;8.808;2022-12-07T06:39:00;18.90;99.90
6954;DHT22;3516;47.980;8.808;2022-12-07T06:41:27;18.80;99.90
6954;DHT22;3516;47.980;8.808;2022-12-07T06:43:53;18.90;99.90
6954;DHT22;3516;47.980;8.808;2022-12-07T06:46:20;18.90;99.90
6954;DHT22;3516;47.980;8.808;2022-12-07T06:48:47;18.90;99.90
6954;DHT22;3516;47.980;8.808;2022-12-07T06:51:15;18.90;99.90
6954;DHT22;3516;47.980;8.808;2022-12-07T06:53:42;18.90;99.90
6954;DHT22;3516;47.980;8.808;2022-12-07T06:56:09;18.80;99.90
6954;DHT22;3516;47.980;8.808;2022-12-07T06:58:36;18.80;99.90
6954;DHT22;3516;47.980;8.808;2022-12-07T07:01:08;18.80;99.90
6954;DHT22;3516;47.980;8.808;2022-12-07T07:03:35;18.90;99.90
6954;DHT22;3516;47.980;8.808;2022-12-07T07:06:02;18.80;99.90
6954;DHT22;3516;47.980;8.808;2022-12-07T07:08:30;18.70;99.90
6954;DHT22;3516;47.980;8.808;2022-12-07T07:10:57;18.70;99.90
6954;DHT22;3516;47.980;8.808;2022-12-07T07:13:24;18.70;99.90
6954;DHT22;3516;47.980;8.808;2022-12-07T07:15:50;18.70;99.90
6954;DHT22;3516;47.980;8.808;2022-12-07T07:18:17;18.80;99.90
6954;DHT22;3516;47.980;8.808;2022-12-07T07:20:44;18.70;99.90
6954;DHT22;3516;47.980;8.808;2022-12-07T07:23:11;18.70;99.90
6954;DHT22;3516;47.980;8.808;2022-12-07T07:25:39;18.70;99.90
6954;DHT22;3516;47.980;8.808;2022-12-07T07:28:06;18.60;99.90
6954;DHT22;3516;47.980;8.808;2022-12-07T07:30:32;18.60;99.90
6954;DHT22;3516;47.980;8.808;2022-12-07T07:33:00;18.60;99.90
6954;DHT22;3516;47.980;8.808;2022-12-07T07:35:28;18.70;99.90
6954;DHT22;3516;47.980;8.808;2022-12-07T07:37:56;18.70;99.90
6954;DHT22;3516;47.980;8.808;2022-12-07T07:40:23;18.80;99.90
6954;DHT22;3516;47.980;8.808;2022-12-07T07:42:52;18.80;99.90
6954;DHT22;3516;47.980;8.808;2022-12-07T07:45:20;18.80;99.90
6954;DHT22;3516;47.980;8.808;2022-12-07T07:47:47;18.90;99.90
6954;DHT22;3516;47.980;8.808;2022-12-07T07:50:15;18.90;99.90
6954;DHT22;3516;47.980;8.808;2022-12-07T07:52:42;18.90;99.90
6954;DHT22;3516;47.980;8.808;2022-12-07T07:55:09;19.00;99.90
6954;DHT22;3516;47.980;8.808;2022-12-07T07:57:36;19.00;99.90
6954;DHT22;3516;47.980;8.808;2022-12-07T08:00:08;19.00;99.90
6954;DHT22;3516;47.980;8.808;2022-12-07T08:02:36;18.90;99.90
6954;DHT22;3516;47.980;8.808;2022-12-07T08:05:03;19.00;99.90
6954;DHT22;3516;47.980;8.808;2022-12-07T08:07:30;18.90;99.90
6954;DHT22;3516;47.980;8.808;2022-12-07T08:09:56;18.80;99.90
6954;DHT22;3516;47.980;8.808;2022-12-07T08:12:23;18.90;99.90
6954;DHT22;3516;47.980;8.808;2022-12-07T08:14:50;18.80;99.90
6954;DHT22;3516;47.980;8.808;2022-12-07T08:17:18;18.80;99.90
6954;DHT22;3516;47.980;8.808;2022-12-07T08:19:45;18.80;99.90
6954;DHT22;3516;47.980;8.808;2022-12-07T08:22:11;18.80;99.90
6954;DHT22;3516;47.980;8.808;2022-12-07T08:24:38;18.70;99.90
6954;DHT22;3516;47.980;8.808;2022-12-07T08:27:05;18.70;99.90
6954;DHT22;3516;47.980;8.808;2022-12-07T08:29:32;18.70;99.90
6954;DHT22;3516;47.980;8.808;2022-12-07T08:31:59;18.80;99.90
6954;DHT22;3516;47.980;8.808;2022-12-07T08:34:28;18.70;99.90
6954;DHT22;3516;47.980;8.808;2022-12-07T08:36:54;18.60;99.90
6954;DHT22;3516;47.980;8.808;2022-12-07T08:39:21;18.70;99.90
6954;DHT22;3516;47.980;8.808;2022-12-07T08:41:48;18.80;99.90
6954;DHT22;3516;47.980;8.808;2022-12-07T08:44:15;18.70;99.90
6954;DHT22;3516;47.980;8.808;2022-12-07T08:46:44;18.80;99.90
6954;DHT22;3516;47.980;8.808;2022-12-07T08:49:15;18.90;99.90
6954;DHT22;3516;47.980;8.808;2022-12-07T08:51:44;18.90;99.90
6954;DHT22;3516;47.980;8.808;2022-12-07T08:54:15;18.90;99.90
6954;DHT22;3516;47.980;8.808;2022-12-07T08:56:44;18.90;99.90
6954;DHT22;3516;47.980;8.808;2022-12-07T08:59:13;19.00;99.90
6954;DHT22;3516;47.980;8.808;2022-12-07T09:01:41;19.00;99.90
6954;DHT22;3516;47.980;8.808;2022-12-07T09:04:08;18.90;99.90
6954;DHT22;3516;47.980;8.808;2022-12-07T09:06:35;18.90;99.90
6954;DHT22;3516;47.980;8.808;2022-12-07T09:09:03;18.90;99.90
6954;DHT22;3516;47.980;8.808;2022-12-07T09:11:30;18.90;99.90
6954;DHT22;3516;47.980;8.808;2022-12-07T09:13:57;18.90;99.90
6954;DHT22;3516;47.980;8.808;2022-12-07T09:16:24;18.90;99.90
6954;DHT22;3516;47.980;8.808;2022-12-07T09:18:51;18.90;99.90
6954;DHT22;3516;47.980;8.808;2022-12-07T09:21:17;18.80;99.90
6954;DHT22;3516;47.980;8.808;2022-12-07T09:23:44;18.80;99.90
6954;DHT22;3516;47.980;8.808;2022-12-07T09:26:12;18.70;99.90
6954;DHT22;3516;47.980;8.808;2022-12-07T09:28:39;18.70;99.90
6954;DHT22;3516;47.980;8.808;2022-12-07T09:31:06;18.80;99.90
6954;DHT22;3516;47.980;8.808;2022-12-07T09:33:33;18.70;99.90
6954;DHT22;3516;47.980;8.808;2022-12-07T09:35:59;18.70;99.90
6954;DHT22;3516;47.980;8.808;2022-12-07T09:38:26;18.70;99.90
6954;DHT22;3516;47.980;8.808;2022-12-07T09:40:55;18.70;99.90
6954;DHT22;3516;47.980;8.808;2022-12-07T09:43:25;18.70;99.90
6954;DHT22;3516;47.980;8.808;2022-12-07T09:45:54;18.70;99.90
6954;DHT22;3516;47.980;8.808;2022-12-07T09:48:26;18.70;99.90
6954;DHT22;3516;47.980;8.808;2022-12-07T09:50:58;18.70;99.90
6954;DHT22;3516;47.980;8.808;2022-12-07T09:53:27;18.80;99.90
6954;DHT22;3516;47.980;8.808;2022-12-07T09:55:55;18.90;99.90
6954;DHT22;3516;47.980;8.808;2022-12-07T09:58:25;18.90;99.90
6954;DHT22;3516;47.980;8.808;2022-12-07T10:00:55;19.00;99.90
6954;DHT22;3516;47.980;8.808;2022-12-07T10:03:23;19.00;99.90
6954;DHT22;3516;47.980;8.808;2022-12-07T10:05:51;19.00;99.90
6954;DHT22;3516;47.980;8.808;2022-12-07T10:08:18;19.00;99.90
6954;DHT22;3516;47.980;8.808;2022-12-07T10:10:49;19.00;99.90
6954;DHT22;3516;47.980;8.808;2022-12-07T10:13:20;19.00;99.90
6954;DHT22;3516;47.980;8.808;2022-12-07T10:15:50;18.90;99.90
6954;DHT22;3516;47.980;8.808;2022-12-07T10:18:26;18.90;99.90
6954;DHT22;3516;47.980;8.808;2022-12-07T10:21:02;18.90;99.90
6954;DHT22;3516;47.980;8.808;2022-12-07T10:23:30;18.90;99.90
6954;DHT22;3516;47.980;8.808;2022-12-07T10:25:56;18.90;99.90
6954;DHT22;3516;47.980;8.808;2022-12-07T10:28:27;18.90;99.90
6954;DHT22;3516;47.980;8.808;2022-12-07T10:31:02;18.80;99.90
6954;DHT22;3516;47.980;8.808;2022-12-07T10:33:33;18.80;99.90
6954;DHT22;3516;47.980;8.808;2022-12-07T10:36:16;18.80;99.90
6954;DHT22;3516;47.980;8.808;2022-12-07T10:38:45;18.70;99.90
6954;DHT22;3516;47.980;8.808;2022-12-07T10:41:12;18.70;99.90
6954;DHT22;3516;47.980;8.808;2022-12-07T10:43:50;18.80;99.90
6954;DHT22;3516;47.980;8.808;2022-12-07T10:49:41;18.70;99.90
6954;DHT22;3516;47.980;8.808;2022-12-07T10:52:14;18.70;99.90
6954;DHT22;3516;47.980;8.808;2022-12-07T10:54:48;18.70;99.90
6954;DHT22;3516;47.980;8.808;2022-12-07T10:57:29;18.70;99.90
6954;DHT22;3516;47.980;8.808;2022-12-07T11:00:04;18.70;99.90
6954;DHT22;3516;47.980;8.808;2022-12-07T11:02:50;18.80;99.90
6954;DHT22;3516;47.980;8.808;2022-12-07T11:05:25;18.80;99.90
6954;DHT22;3516;47.980;8.808;2022-12-07T11:08:01;18.90;99.90
6954;DHT22;3516;47.980;8.808;2022-12-07T11:10:39;19.00;99.90
6954;DHT22;3516;47.980;8.808;2022-12-07T11:13:23;19.00;99.90
6954;DHT22;3516;47.980;8.808;2022-12-07T11:16:08;19.00;99.90
6954;DHT22;3516;47.980;8.808;2022-12-07T11:18:51;19.00;99.90
6954;DHT22;3516;47.980;8.808;2022-12-07T11:21:25;19.00;99.90
6954;DHT22;3516;47.980;8.808;2022-12-07T11:23:59;19.00;99.90
6954;DHT22;3516;47.980;8.808;2022-12-07T11:26:41;18.90;99.90
6954;DHT22;3516;47.980;8.808;2022-12-07T11:29:24;19.00;99.90
6954;DHT22;3516;47.980;8.808;2022-12-07T11:32:02;18.90;99.90
6954;DHT22;3516;47.980;8.808;2022-12-07T11:34:38;18.90;99.90
6954;DHT22;3516;47.980;8.808;2022-12-07T11:37:10;18.90;99.90
6954;DHT22;3516;47.980;8.808;2022-12-07T11:39:43;18.90;99.90
6954;DHT22;3516;47.980;8.808;2022-12-07T11:42:15;18.80;99.90
6954;DHT22;3516;47.980;8.808;2022-12-07T11:44:49;18.80;99.90
6954;DHT22;3516;47.980;8.808;2022-12-07T11:47:25;18.80;99.90
6954;DHT22;3516;47.980;8.808;2022-12-07T11:50:00;18.80;99.90
6954;DHT22;3516;47.980;8.808;2022-12-07T11:52:34;18.70;99.90
6954;DHT22;3516;47.980;8.808;2022-12-07T11:55:05;18.70;99.90
6954;DHT22;3516;47.980;8.808;2022-12-07T11:57:44;18.70;99.90
6954;DHT22;3516;47.980;8.808;2022-12-07T12:00:15;18.60;99.90
6954;DHT22;3516;47.980;8.808;2022-12-07T12:02:48;18.60;99.90
6954;DHT22;3516;47.980;8.808;2022-12-07T12:05:19;18.70;99.90
6954;DHT22;3516;47.980;8.808;2022-12-07T12:07:52;18.70;99.90
6954;DHT22;3516;47.980;8.808;2022-12-07T12:10:24;18.70;99.90
6954;DHT22;3516;47.980;8.808;2022-12-07T12:13:24;18.80;99.90
6954;DHT22;3516;47.980;8.808;2022-12-07T12:16:10;18.80;99.90
6954;DHT22;3516;47.980;8.808;2022-12-07T12:18:53;18.80;99.90
6954;DHT22;3516;47.980;8.808;2022-12-07T12:21:29;18.90;99.90
6954;DHT22;3516;47.980;8.808;2022-12-07T12:23:58;18.90;99.90
6954;DHT22;3516;47.980;8.808;2022-12-07T12:26:28;19.10;99.90
6954;DHT22;3516;47.980;8.808;2022-12-07T12:28:57;19.00;99.90
6954;DHT22;3516;47.980;8.808;2022-12-07T12:31:36;19.10;99.90
6954;DHT22;3516;47.980;8.808;2022-12-07T12:34:31;19.10;99.90
6954;DHT22;3516;47.980;8.808;2022-12-07T12:36:59;19.30;99.90
6954;DHT22;3516;47.980;8.808;2022-12-07T12:39:26;19.40;99.90
6954;DHT22;3516;47.980;8.808;2022-12-07T12:41:58;19.50;99.90
6954;DHT22;3516;47.980;8.808;2022-12-07T12:47:43;19.70;99.90
6954;DHT22;3516;47.980;8.808;2022-12-07T12:50:20;19.70;99.90
6954;DHT22;3516;47.980;8.808;2022-12-07T12:53:12;19.70;99.90
6954;DHT22;3516;47.980;8.808;2022-12-07T12:56:13;19.80;99.90
6954;DHT22;3516;47.980;8.808;2022-12-07T12:58:44;19.90;99.90
6954;DHT22;3516;47.980;8.808;2022-12-07T13:01:40;19.90;99.90
6954;DHT22;3516;47.980;8.808;2022-12-07T13:04:38;20.00;99.90
6954;DHT22;3516;47.980;8.808;2022-12-07T13:07:11;20.10;99.90
6954;DHT22;3516;47.980;8.808;2022-12-07T13:09:43;20.10;99.90
6954;DHT22;3516;47.980;8.808;2022-12-07T13:12:13;20.20;99.90
6954;DHT22;3516;47.980;8.808;2022-12-07T13:15:27;20.20;99.90
6954;DHT22;3516;47.980;8.808;2022-12-07T13:18:00;20.20;99.90
6954;DHT22;3516;47.980;8.808;2022-12-07T13:20:47;20.10;99.90
6954;DHT22;3516;47.980;8.808;2022-12-07T13:23:19;20.10;99.90
6954;DHT22;3516;47.980;8.808;2022-12-07T13:25:55;20.10;99.90
6954;DHT22;3516;47.980;8.808;2022-12-07T13:28:22;20.00;99.90
6954;DHT22;3516;47.980;8.808;2022-12-07T13:31:07;20.00;99.90
6954;DHT22;3516;47.980;8.808;2022-12-07T13:33:37;20.00;99.90
6954;DHT22;3516;47.980;8.808;2022-12-07T13:36:08;20.00;99.90
6954;DHT22;3516;47.980;8.808;2022-12-07T13:38:49;19.90;99.90
6954;DHT22;3516;47.980;8.808;2022-12-07T13:41:19;19.90;99.90
6954;DHT22;3516;47.980;8.808;2022-12-07T13:43:50;19.90;99.90
6954;DHT22;3516;47.980;8.808;2022-12-07T13:46:20;20.00;99.90
6954;DHT22;3516;47.980;8.808;2022-12-07T13:48:50;20.00;99.90
6954;DHT22;3516;47.980;8.808;2022-12-07T13:51:20;20.10;99.90
6954;DHT22;3516;47.980;8.808;2022-12-07T13:53:47;20.20;99.90
6954;DHT22;3516;47.980;8.808;2022-12-07T13:56:16;20.20;99.90
6954;DHT22;3516;47.980;8.808;2022-12-07T13:58:43;20.20;99.90
6954;DHT22;3516;47.980;8.808;2022-12-07T14:01:10;20.40;99.90
6954;DHT22;3516;47.980;8.808;2022-12-07T14:03:38;20.30;99.90
6954;DHT22;3516;47.980;8.808;2022-12-07T14:06:13;20.40;99.90
6954;DHT22;3516;47.980;8.808;2022-12-07T14:08:41;20.50;99.90
6954;DHT22;3516;47.980;8.808;2022-12-07T14:11:11;20.40;99.90
6954;DHT22;3516;47.980;8.808;2022-12-07T14:13:51;20.30;99.90
6954;DHT22;3516;47.980;8.808;2022-12-07T14:16:23;20.30;99.90
6954;DHT22;3516;47.980;8.808;2022-12-07T14:18:51;20.20;99.90
6954;DHT22;3516;47.980;8.808;2022-12-07T14:21:21;20.10;99.90
6954;DHT22;3516;47.980;8.808;2022-12-07T14:24:07;20.10;99.90
6954;DHT22;3516;47.980;8.808;2022-12-07T14:26:34;19.90;99.90
6954;DHT22;3516;47.980;8.808;2022-12-07T14:29:30;19.90;99.90
6954;DHT22;3516;47.980;8.808;2022-12-07T14:31:59;19.80;99.90
6954;DHT22;3516;47.980;8.808;2022-12-07T14:34:37;19.80;99.90
6954;DHT22;3516;47.980;8.808;2022-12-07T14:37:06;19.80;99.90
6954;DHT22;3516;47.980;8.808;2022-12-07T14:39:33;19.70;99.90
6954;DHT22;3516;47.980;8.808;2022-12-07T14:42:00;19.70;99.90
6954;DHT22;3516;47.980;8.808;2022-12-07T14:44:27;19.70;99.90
6954;DHT22;3516;47.980;8.808;2022-12-07T14:46:55;19.60;99.90
6954;DHT22;3516;47.980;8.808;2022-12-07T14:49:22;19.50;99.90
6954;DHT22;3516;47.980;8.808;2022-12-07T14:51:49;19.50;99.90
6954;DHT22;3516;47.980;8.808;2022-12-07T14:54:16;19.50;99.90
6954;DHT22;3516;47.980;8.808;2022-12-07T14:56:44;19.50;99.90
6954;DHT22;3516;47.980;8.808;2022-12-07T14:59:11;19.50;99.90
6954;DHT22;3516;47.980;8.808;2022-12-07T15:01:38;19.50;99.90
6954;DHT22;3516;47.980;8.808;2022-12-07T15:04:06;19.50;99.90
6954;DHT22;3516;47.980;8.808;2022-12-07T15:14:19;19.20;99.90
6954;DHT22;3516;47.980;8.808;2022-12-07T15:16:46;19.20;99.90
6954;DHT22;3516;47.980;8.808;2022-12-07T15:19:16;19.20;99.90
6954;DHT22;3516;47.980;8.808;2022-12-07T15:21:43;19.10;99.90
6954;DHT22;3516;47.980;8.808;2022-12-07T15:24:11;19.10;99.90
6954;DHT22;3516;47.980;8.808;2022-12-07T15:26:39;19.10;99.90
6954;DHT22;3516;47.980;8.808;2022-12-07T15:29:07;19.10;99.90
6954;DHT22;3516;47.980;8.808;2022-12-07T15:31:34;19.00;99.90
6954;DHT22;3516;47.980;8.808;2022-12-07T15:34:01;18.90;99.90
6954;DHT22;3516;47.980;8.808;2022-12-07T15:36:31;18.90;99.90
6954;DHT22;3516;47.980;8.808;2022-12-07T15:38:58;18.90;99.90
6954;DHT22;3516;47.980;8.808;2022-12-07T15:41:25;18.90;99.90
6954;DHT22;3516;47.980;8.808;2022-12-07T15:43:52;18.90;99.90
6954;DHT22;3516;47.980;8.808;2022-12-07T15:46:38;18.90;99.90
6954;DHT22;3516;47.980;8.808;2022-12-07T15:49:08;18.80;99.90
6954;DHT22;3516;47.980;8.808;2022-12-07T15:51:37;18.90;99.90
6954;DHT22;3516;47.980;8.808;2022-12-07T15:54:04;18.90;99.90
6954;DHT22;3516;47.980;8.808;2022-12-07T15:56:31;18.80;99.90
6954;DHT22;3516;47.980;8.808;2022-12-07T15:58:57;18.90;99.90
6954;DHT22;3516;47.980;8.808;2022-12-07T16:01:24;18.90;99.90
6954;DHT22;3516;47.980;8.808;2022-12-07T16:03:51;18.80;99.90
6954;DHT22;3516;47.980;8.808;2022-12-07T16:06:18;18.80;99.90
6954;DHT22;3516;47.980;8.808;2022-12-07T16:08:47;18.80;99.90
6954;DHT22;3516;47.980;8.808;2022-12-07T16:11:14;18.80;99.90
6954;DHT22;3516;47.980;8.808;2022-12-07T16:13:40;19.00;99.90
6954;DHT22;3516;47.980;8.808;2022-12-07T16:16:11;18.70;99.90
6954;DHT22;3516;47.980;8.808;2022-12-07T16:18:38;18.70;99.90
6954;DHT22;3516;47.980;8.808;2022-12-07T16:21:05;18.70;99.90
6954;DHT22;3516;47.980;8.808;2022-12-07T16:23:32;18.60;99.90
6954;DHT22;3516;47.980;8.808;2022-12-07T16:26:08;18.60;99.90
6954;DHT22;3516;47.980;8.808;2022-12-07T16:28:35;18.60;99.90
6954;DHT22;3516;47.980;8.808;2022-12-07T16:31:03;18.60;99.90
6954;DHT22;3516;47.980;8.808;2022-12-07T16:33:30;18.60;99.90
6954;DHT22;3516;47.980;8.808;2022-12-07T16:35:58;18.60;99.90
6954;DHT22;3516;47.980;8.808;2022-12-07T16:38:25;18.70;99.90
6954;DHT22;3516;47.980;8.808;2022-12-07T16:40:53;18.70;99.90
6954;DHT22;3516;47.980;8.808;2022-12-07T16:43:21;18.70;99.90
6954;DHT22;3516;47.980;8.808;2022-12-07T16:45:48;18.70;99.90
6954;DHT22;3516;47.980;8.808;2022-12-07T16:48:15;18.70;99.90
6954;DHT22;3516;47.980;8.808;2022-12-07T16:50:42;18.60;99.90
6954;DHT22;3516;47.980;8.808;2022-12-07T16:53:10;18.60;99.90
6954;DHT22;3516;47.980;8.808;2022-12-07T16:55:38;18.60;99.90
6954;DHT22;3516;47.980;8.808;2022-12-07T16:58:05;18.60;99.90
6954;DHT22;3516;47.980;8.808;2022-12-07T17:00:33;18.60;99.90
6954;DHT22;3516;47.980;8.808;2022-12-07T17:03:00;18.60;99.90
6954;DHT22;3516;47.980;8.808;2022-12-07T17:05:27;18.70;99.90
6954;DHT22;3516;47.980;8.808;2022-12-07T17:07:55;18.70;99.90
6954;DHT22;3516;47.980;8.808;2022-12-07T17:10:22;18.60;99.90
6954;DHT22;3516;47.980;8.808;2022-12-07T17:12:49;18.70;99.90
6954;DHT22;3516;47.980;8.808;2022-12-07T17:15:17;18.70;99.90
6954;DHT22;3516;47.980;8.808;2022-12-07T17:17:45;18.70;99.90
6954;DHT22;3516;47.980;8.808;2022-12-07T17:20:13;18.70;99.90
6954;DHT22;3516;47.980;8.808;2022-12-07T17:22:40;18.70;99.90
6954;DHT22;3516;47.980;8.808;2022-12-07T17:25:07;18.70;99.90
6954;DHT22;3516;47.980;8.808;2022-12-07T17:27:35;18.70;99.90
6954;DHT22;3516;47.980;8.808;2022-12-07T17:30:03;18.90;99.90
6954;DHT22;3516;47.980;8.808;2022-12-07T17:32:30;18.70;99.90
6954;DHT22;3516;47.980;8.808;2022-12-07T17:34:58;18.70;99.90
6954;DHT22;3516;47.980;8.808;2022-12-07T17:37:26;18.70;99.90
6954;DHT22;3516;47.980;8.808;2022-12-07T17:39:53;18.70;99.90
6954;DHT22;3516;47.980;8.808;2022-12-07T17:42:22;18.60;99.90
6954;DHT22;3516;47.980;8.808;2022-12-07T17:45:06;18.70;99.90
6954;DHT22;3516;47.980;8.808;2022-12-07T17:47:33;18.70;99.90
6954;DHT22;3516;47.980;8.808;2022-12-07T17:50:01;18.70;99.90
6954;DHT22;3516;47.980;8.808;2022-12-07T17:52:28;18.70;99.90
6954;DHT22;3516;47.980;8.808;2022-12-07T17:55:12;18.70;99.90
6954;DHT22;3516;47.980;8.808;2022-12-07T17:57:39;18.70;99.90
6954;DHT22;3516;47.980;8.808;2022-12-07T18:00:07;18.70;99.90
6954;DHT22;3516;47.980;8.808;2022-12-07T18:02:34;18.70;99.90
6954;DHT22;3516;47.980;8.808;2022-12-07T18:05:02;18.80;99.90
6954;DHT22;3516;47.980;8.808;2022-12-07T18:07:29;18.70;99.90
6954;DHT22;3516;47.980;8.808;2022-12-07T18:09:55;18.80;99.90
6954;DHT22;3516;47.980;8.808;2022-12-07T18:12:23;18.80;99.90
6954;DHT22;3516;47.980;8.808;2022-12-07T18:14:49;18.80;99.90
6954;DHT22;3516;47.980;8.808;2022-12-07T18:17:18;18.80;99.90
6954;DHT22;3516;47.980;8.808;2022-12-07T18:19:45;18.80;99.90
6954;DHT22;3516;47.980;8.808;2022-12-07T18:22:13;18.80;99.90
6954;DHT22;3516;47.980;8.808;2022-12-07T18:24:40;18.80;99.90
6954;DHT22;3516;47.980;8.808;2022-12-07T18:27:07;18.80;99.90
6954;DHT22;3516;47.980;8.808;2022-12-07T18:29:34;18.90;99.90
6954;DHT22;3516;47.980;8.808;2022-12-07T18:32:01;18.90;99.90
6954;DHT22;3516;47.980;8.808;2022-12-07T18:34:29;18.90;99.90
6954;DHT22;3516;47.980;8.808;2022-12-07T18:36:56;18.90;99.90
6954;DHT22;3516;47.980;8.808;2022-12-07T18:39:24;18.90;99.90
6954;DHT22;3516;47.980;8.808;2022-12-07T18:41:51;18.90;99.90
6954;DHT22;3516;47.980;8.808;2022-12-07T18:44:18;18.90;99.90
6954;DHT22;3516;47.980;8.808;2022-12-07T18:46:45;18.90;99.90
6954;DHT22;3516;47.980;8.808;2022-12-07T18:49:13;18.90;99.90
6954;DHT22;3516;47.980;8.808;2022-12-07T18:51:40;18.80;99.90
6954;DHT22;3516;47.980;8.808;2022-12-07T18:54:07;18.70;99.90
6954;DHT22;3516;47.980;8.808;2022-12-07T18:56:35;18.80;99.90
6954;DHT22;3516;47.980;8.808;2022-12-07T18:59:03;18.90;99.90
6954;DHT22;3516;47.980;8.808;2022-12-07T19:01:50;18.90;99.90
6954;DHT22;3516;47.980;8.808;2022-12-07T19:04:17;19.00;99.90
6954;DHT22;3516;47.980;8.808;2022-12-07T19:06:45;18.90;99.90
6954;DHT22;3516;47.980;8.808;2022-12-07T19:09:13;18.80;99.90
6954;DHT22;3516;47.980;8.808;2022-12-07T19:11:41;18.90;99.90
6954;DHT22;3516;47.980;8.808;2022-12-07T19:14:22;18.80;99.90
6954;DHT22;3516;47.980;8.808;2022-12-07T19:16:51;18.80;99.90
6954;DHT22;3516;47.980;8.808;2022-12-07T19:19:20;18.80;99.90
6954;DHT22;3516;47.980;8.808;2022-12-07T19:21:47;18.80;99.90
6954;DHT22;3516;47.980;8.808;2022-12-07T19:24:15;18.80;99.90
6954;DHT22;3516;47.980;8.808;2022-12-07T19:26:43;18.90;99.90
6954;DHT22;3516;47.980;8.808;2022-12-07T19:29:10;18.90;99.90
6954;DHT22;3516;47.980;8.808;2022-12-07T19:31:37;18.90;99.90
6954;DHT22;3516;47.980;8.808;2022-12-07T19:34:07;18.90;99.90
6954;DHT22;3516;47.980;8.808;2022-12-07T19:36:34;18.90;99.90
6954;DHT22;3516;47.980;8.808;2022-12-07T19:39:01;18.80;99.90
6954;DHT22;3516;47.980;8.808;2022-12-07T19:41:28;18.70;99.90
6954;DHT22;3516;47.980;8.808;2022-12-07T19:44:05;18.80;99.90
6954;DHT22;3516;47.980;8.808;2022-12-07T19:46:32;18.80;99.90
6954;DHT22;3516;47.980;8.808;2022-12-07T19:48:59;18.80;99.90
6954;DHT22;3516;47.980;8.808;2022-12-07T19:51:27;18.80;99.90
6954;DHT22;3516;47.980;8.808;2022-12-07T19:53:55;18.80;99.90
6954;DHT22;3516;47.980;8.808;2022-12-07T19:56:23;18.90;99.90
6954;DHT22;3516;47.980;8.808;2022-12-07T19:58:50;18.90;99.90
6954;DHT22;3516;47.980;8.808;2022-12-07T20:01:18;18.90;99.90
6954;DHT22;3516;47.980;8.808;2022-12-07T20:03:45;18.90;99.90
6954;DHT22;3516;47.980;8.808;2022-12-07T20:06:14;18.90;99.90
6954;DHT22;3516;47.980;8.808;2022-12-07T20:08:42;18.90;99.90
6954;DHT22;3516;47.980;8.808;2022-12-07T20:11:09;18.80;99.90
6954;DHT22;3516;47.980;8.808;2022-12-07T20:13:54;18.90;99.90
6954;DHT22;3516;47.980;8.808;2022-12-07T20:16:22;18.80;99.90
6954;DHT22;3516;47.980;8.808;2022-12-07T20:18:50;18.80;99.90
6954;DHT22;3516;47.980;8.808;2022-12-07T20:21:16;18.80;99.90
6954;DHT22;3516;47.980;8.808;2022-12-07T20:23:43;18.80;99.90
6954;DHT22;3516;47.980;8.808;2022-12-07T20:26:12;18.80;99.90
6954;DHT22;3516;47.980;8.808;2022-12-07T20:28:40;18.70;99.90
6954;DHT22;3516;47.980;8.808;2022-12-07T20:31:11;18.80;99.90
6954;DHT22;3516;47.980;8.808;2022-12-07T20:33:39;18.70;99.90
6954;DHT22;3516;47.980;8.808;2022-12-07T20:36:07;18.70;99.90
6954;DHT22;3516;47.980;8.808;2022-12-07T20:38:34;18.70;99.90
6954;DHT22;3516;47.980;8.808;2022-12-07T20:41:03;18.70;99.90
6954;DHT22;3516;47.980;8.808;2022-12-07T20:43:30;18.60;99.90
6954;DHT22;3516;47.980;8.808;2022-12-07T20:45:56;18.70;99.90
6954;DHT22;3516;47.980;8.808;2022-12-07T20:48:22;18.70;99.90
6954;DHT22;3516;47.980;8.808;2022-12-07T20:50:51;18.60;99.90
6954;DHT22;3516;47.980;8.808;2022-12-07T20:53:17;18.70;99.90
6954;DHT22;3516;47.980;8.808;2022-12-07T20:55:44;18.70;99.90
6954;DHT22;3516;47.980;8.808;2022-12-07T20:58:11;18.70;99.90
6954;DHT22;3516;47.980;8.808;2022-12-07T21:00:38;18.60;99.90
6954;DHT22;3516;47.980;8.808;2022-12-07T21:03:05;18.60;99.90
6954;DHT22;3516;47.980;8.808;2022-12-07T21:05:32;18.60;99.90
6954;DHT22;3516;47.980;8.808;2022-12-07T21:08:01;18.50;99.90
6954;DHT22;3516;47.980;8.808;2022-12-07T21:10:28;18.50;99.90
6954;DHT22;3516;47.980;8.808;2022-12-07T21:12:55;18.50;99.90
6954;DHT22;3516;47.980;8.808;2022-12-07T21:15:22;18.50;99.90
6954;DHT22;3516;47.980;8.808;2022-12-07T21:17:48;18.50;99.90
6954;DHT22;3516;47.980;8.808;2022-12-07T21:20:15;18.50;99.90
6954;DHT22;3516;47.980;8.808;2022-12-07T21:22:42;18.50;99.90
6954;DHT22;3516;47.980;8.808;2022-12-07T21:25:10;18.50;99.90